Time;durP1;ratioP1;P1;durP2;ratioP2;P2;SDS_P1;SDS_P2;PMS_P1;PMS_P2;Temp;Humidity;BMP_temperature;BMP_pressure;BME280_temperature;BME280_humidity;BME280_pressure;Samples;Min_cycle;Max_cycle;Signal;HPM_P1;HPM_P2
2022/06/28 00:01:03;;;;;;;4.80;2.50;;;14.80;99.90;;;;;;5050678;28;20097;-73
2022/06/28 00:03:29;;;;;;;4.53;2.42;;;14.80;99.90;;;;;;5063388;28;20111;-73
2022/06/28 00:05:54;;;;;;;9.80;2.38;;;14.80;99.90;;;;;;5066601;28;20175;-73
2022/06/28 00:08:20;;;;;;;4.22;2.67;;;14.80;99.90;;;;;;5064315;28;20036;-73
2022/06/28 00:10:46;;;;;;;4.03;2.65;;;14.80;99.90;;;;;;5068359;28;20075;-73
2022/06/28 00:13:12;;;;;;;4.47;2.55;;;14.70;99.90;;;;;;5059082;28;20495;-73
2022/06/28 00:18:22;;;;;;;3.90;2.35;;;14.70;99.90;;;;;;5060199;28;20147;-73
2022/06/28 00:20:47;;;;;;;7.68;2.63;;;14.70;99.90;;;;;;5036690;28;20619;-73
2022/06/28 00:23:13;;;;;;;3.60;2.35;;;14.70;99.90;;;;;;5066917;28;20036;-73
2022/06/28 00:25:38;;;;;;;5.35;2.63;;;14.70;99.90;;;;;;5062872;28;20035;-73
2022/06/28 00:28:04;;;;;;;4.38;2.15;;;14.70;99.90;;;;;;5060112;28;20039;-74
2022/06/28 00:30:30;;;;;;;5.57;2.92;;;14.60;99.90;;;;;;5067912;28;20099;-73
2022/06/28 00:32:55;;;;;;;3.90;2.55;;;14.60;99.90;;;;;;5067659;28;20079;-73
2022/06/28 00:35:21;;;;;;;4.75;2.35;;;14.60;99.90;;;;;;5042588;28;20406;-73
2022/06/28 00:37:47;;;;;;;4.47;2.25;;;14.50;99.90;;;;;;5055574;28;20048;-73
2022/06/28 00:40:13;;;;;;;4.63;2.50;;;14.50;99.90;;;;;;5063257;28;20071;-73
2022/06/28 00:42:39;;;;;;;4.28;2.53;;;14.50;99.90;;;;;;5058462;28;20036;-73
2022/06/28 00:45:06;;;;;;;5.20;2.60;;;14.50;99.90;;;;;;5080937;28;20090;-73
2022/06/28 00:47:32;;;;;;;4.63;2.53;;;14.50;99.90;;;;;;5063923;28;20032;-73
2022/06/28 00:49:59;;;;;;;3.92;2.42;;;14.50;99.90;;;;;;5065428;28;20047;-73
2022/06/28 00:52:25;;;;;;;3.30;2.15;;;14.50;99.90;;;;;;5066473;28;20048;-73
2022/06/28 00:54:51;;;;;;;3.95;2.22;;;14.40;99.90;;;;;;5059210;28;20032;-74
2022/06/28 00:57:17;;;;;;;3.30;2.28;;;14.50;99.90;;;;;;5057851;28;20048;-73
2022/06/28 00:59:42;;;;;;;4.53;2.80;;;14.40;99.90;;;;;;5056196;28;20437;-73
2022/06/28 01:02:08;;;;;;;3.88;2.60;;;14.40;99.90;;;;;;5062178;28;20033;-73
2022/06/28 01:04:35;;;;;;;4.03;2.33;;;14.40;99.90;;;;;;5064605;28;20036;-73
2022/06/28 01:07:01;;;;;;;4.18;2.67;;;14.40;99.90;;;;;;5080119;28;20518;-74
2022/06/28 01:09:27;;;;;;;4.07;2.40;;;14.40;99.90;;;;;;5060641;28;20044;-73
2022/06/28 01:11:53;;;;;;;7.15;2.85;;;14.40;99.90;;;;;;5066890;28;20109;-73
2022/06/28 01:14:18;;;;;;;4.45;2.53;;;14.40;99.90;;;;;;5056848;28;20040;-73
2022/06/28 01:16:45;;;;;;;3.45;2.35;;;14.40;99.90;;;;;;5063003;28;20052;-73
2022/06/28 01:19:11;;;;;;;4.43;2.83;;;14.40;99.90;;;;;;5063566;28;20127;-73
2022/06/28 01:21:37;;;;;;;5.55;2.60;;;14.30;99.90;;;;;;5064359;28;20141;-73
2022/06/28 01:24:04;;;;;;;3.78;2.55;;;14.30;99.90;;;;;;5058338;28;20033;-73
2022/06/28 01:26:31;;;;;;;4.10;2.63;;;14.30;99.90;;;;;;5064466;28;20050;-73
2022/06/28 01:28:57;;;;;;;4.32;2.67;;;14.30;99.90;;;;;;5065751;28;20047;-73
2022/06/28 01:31:23;;;;;;;3.35;2.25;;;14.20;99.90;;;;;;5065098;28;20406;-73
2022/06/28 01:33:52;;;;;;;6.57;3.03;;;14.30;99.90;;;;;;5048910;28;20062;-73
2022/06/28 01:36:18;;;;;;;4.30;2.70;;;14.20;99.90;;;;;;5061667;28;20098;-73
2022/06/28 01:38:44;;;;;;;8.48;3.15;;;14.20;99.90;;;;;;5049529;28;20048;-73
2022/06/28 01:41:32;;;;;;;5.10;2.95;;;14.20;99.90;;;;;;5053665;28;20091;-73
2022/06/28 01:44:00;;;;;;;4.28;2.53;;;14.20;99.90;;;;;;5068713;28;20028;-73
2022/06/28 01:46:26;;;;;;;3.28;2.20;;;14.20;99.90;;;;;;5062628;28;20111;-73
2022/06/28 01:48:54;;;;;;;4.35;3.00;;;14.10;99.90;;;;;;5067441;28;20410;-73
2022/06/28 01:51:19;;;;;;;5.28;2.95;;;14.10;99.90;;;;;;5064928;28;20036;-73
2022/06/28 01:53:45;;;;;;;5.55;2.72;;;14.10;99.90;;;;;;5065455;28;20036;-73
2022/06/28 01:56:11;;;;;;;4.30;2.90;;;14.10;99.90;;;;;;5063562;28;20035;-73
2022/06/28 01:58:39;;;;;;;5.15;2.85;;;14.10;99.90;;;;;;5067458;28;20029;-73
2022/06/28 02:01:05;;;;;;;4.07;2.60;;;14.10;99.90;;;;;;5065688;28;21418;-73
2022/06/28 02:03:30;;;;;;;5.15;2.85;;;14.10;99.90;;;;;;5062676;28;20478;-73
2022/06/28 02:05:56;;;;;;;3.95;2.53;;;14.10;99.90;;;;;;5070704;28;20028;-73
2022/06/28 02:08:21;;;;;;;3.95;2.25;;;14.00;99.90;;;;;;5065954;28;20494;-73
2022/06/28 02:10:47;;;;;;;5.30;2.80;;;14.00;99.90;;;;;;5064849;28;20577;-73
2022/06/28 02:13:13;;;;;;;4.38;2.65;;;14.00;99.90;;;;;;5056250;28;20281;-73
2022/06/28 02:15:38;;;;;;;4.88;2.67;;;14.00;99.90;;;;;;5060501;28;20047;-73
2022/06/28 02:18:04;;;;;;;4.53;2.53;;;14.00;99.90;;;;;;5059877;28;20048;-73
2022/06/28 02:20:29;;;;;;;6.18;2.65;;;13.90;99.90;;;;;;5060272;28;20040;-73
2022/06/28 02:22:55;;;;;;;5.00;2.50;;;14.00;99.90;;;;;;5065390;28;20036;-73
2022/06/28 02:25:21;;;;;;;6.40;3.17;;;14.00;99.90;;;;;;5060591;28;20123;-73
2022/06/28 02:27:47;;;;;;;4.05;2.63;;;14.00;99.90;;;;;;5060326;28;20044;-73
2022/06/28 02:30:14;;;;;;;4.40;2.28;;;13.90;99.90;;;;;;5064577;28;20037;-73
2022/06/28 02:32:40;;;;;;;5.55;2.92;;;13.90;99.90;;;;;;5061620;28;20679;-73
2022/06/28 02:40:35;;;;;;;5.63;2.20;;;13.90;99.90;;;;;;5061350;28;20037;-73
2022/06/28 02:43:00;;;;;;;7.13;3.10;;;13.90;99.90;;;;;;5065402;28;20050;-73
2022/06/28 02:45:32;;;;;;;6.15;2.80;;;13.90;99.90;;;;;;5068832;28;20029;-73
2022/06/28 02:47:58;;;;;;;4.95;2.95;;;13.90;99.90;;;;;;5062243;28;20058;-73
2022/06/28 02:50:24;;;;;;;3.88;2.35;;;13.90;99.90;;;;;;5072682;28;20052;-73
2022/06/28 02:52:50;;;;;;;4.97;2.22;;;13.90;99.90;;;;;;5080121;28;20498;-73
2022/06/28 02:55:16;;;;;;;5.97;2.58;;;13.80;99.90;;;;;;5077206;28;20040;-73
2022/06/28 02:57:42;;;;;;;6.00;2.90;;;13.80;99.90;;;;;;5060995;28;20029;-73
2022/06/28 03:00:10;;;;;;;4.40;2.53;;;13.80;99.90;;;;;;5088001;28;20036;-73
2022/06/28 03:02:38;;;;;;;5.05;3.00;;;13.80;99.90;;;;;;5062188;28;20032;-73
2022/06/28 03:05:05;;;;;;;3.92;2.63;;;13.80;99.90;;;;;;5079718;28;20074;-73
2022/06/28 03:07:30;;;;;;;4.70;2.90;;;13.80;99.90;;;;;;5064964;28;20514;-73
2022/06/28 03:09:56;;;;;;;5.47;3.15;;;13.80;99.90;;;;;;5074112;28;20045;-73
2022/06/28 03:12:22;;;;;;;4.68;2.65;;;13.80;99.90;;;;;;5063747;28;20036;-73
2022/06/28 03:14:47;;;;;;;4.20;2.33;;;13.70;99.90;;;;;;5074514;28;20611;-73
2022/06/28 03:17:13;;;;;;;4.00;2.63;;;13.70;99.90;;;;;;5062978;28;20059;-73
2022/06/28 03:19:38;;;;;;;4.22;2.33;;;13.70;99.90;;;;;;5067782;28;20049;-73
2022/06/28 03:22:04;;;;;;;4.97;2.67;;;13.70;99.90;;;;;;5059828;28;20160;-73
2022/06/28 03:24:30;;;;;;;4.00;2.50;;;13.70;99.90;;;;;;5066387;28;20059;-73
2022/06/28 03:26:55;;;;;;;4.90;2.83;;;13.70;99.90;;;;;;5068119;28;20062;-73
2022/06/28 03:29:21;;;;;;;5.88;2.80;;;13.70;99.90;;;;;;5074476;28;20118;-73
2022/06/28 03:31:46;;;;;;;4.47;2.53;;;13.70;99.90;;;;;;5066212;28;20047;-73
2022/06/28 03:34:12;;;;;;;3.97;2.42;;;13.70;99.90;;;;;;5064380;28;20059;-73
2022/06/28 03:36:38;;;;;;;4.75;3.00;;;13.60;99.90;;;;;;5070713;28;20044;-73
2022/06/28 03:39:03;;;;;;;4.95;2.60;;;13.60;99.90;;;;;;5064645;28;20037;-73
2022/06/28 03:41:29;;;;;;;4.43;2.67;;;13.60;99.90;;;;;;5063272;28;20676;-73
2022/06/28 03:43:55;;;;;;;4.00;2.75;;;13.60;99.90;;;;;;5064928;28;20098;-73
2022/06/28 03:46:21;;;;;;;3.83;2.22;;;13.60;99.90;;;;;;5067959;28;20045;-73
2022/06/28 03:48:47;;;;;;;5.60;2.90;;;13.60;99.90;;;;;;5055924;28;20127;-73
2022/06/28 03:51:13;;;;;;;5.38;2.50;;;13.60;99.90;;;;;;5054416;28;20043;-73
2022/06/28 03:53:39;;;;;;;7.78;2.47;;;13.60;99.90;;;;;;5064758;28;20043;-73
2022/06/28 03:56:05;;;;;;;3.90;2.45;;;13.60;99.90;;;;;;5060771;28;20028;-73
2022/06/28 03:58:31;;;;;;;4.45;2.50;;;13.60;99.90;;;;;;5062176;28;20107;-73
2022/06/28 04:00:57;;;;;;;4.40;2.78;;;13.60;99.90;;;;;;5070652;28;20044;-73
2022/06/28 04:03:22;;;;;;;4.30;2.55;;;13.60;99.90;;;;;;5064535;28;20193;-73
2022/06/28 04:05:48;;;;;;;6.82;2.90;;;13.60;99.90;;;;;;5062861;28;20051;-73
2022/06/28 04:08:14;;;;;;;5.00;2.42;;;13.60;99.90;;;;;;5069742;28;20036;-73
2022/06/28 04:10:39;;;;;;;5.82;2.78;;;13.60;99.90;;;;;;5057500;28;20037;-73
2022/06/28 04:13:05;;;;;;;7.78;2.70;;;13.60;99.90;;;;;;5060179;28;20493;-73
2022/06/28 04:15:31;;;;;;;3.35;1.92;;;13.70;99.90;;;;;;5061935;28;20079;-73
2022/06/28 04:17:57;;;;;;;4.35;2.67;;;13.70;99.90;;;;;;5063553;28;20408;-73
2022/06/28 04:20:22;;;;;;;3.60;2.30;;;13.70;99.90;;;;;;5063132;28;20043;-73
2022/06/28 04:22:48;;;;;;;4.88;2.40;;;13.70;99.90;;;;;;5050871;28;20056;-73
2022/06/28 04:25:14;;;;;;;3.22;2.13;;;13.80;99.90;;;;;;5062004;28;20035;-73
2022/06/28 04:27:40;;;;;;;5.03;2.70;;;13.80;99.90;;;;;;5043832;28;20779;-73
2022/06/28 04:30:06;;;;;;;4.90;2.53;;;13.80;99.90;;;;;;5066766;28;20064;-73
2022/06/28 04:32:32;;;;;;;3.35;2.10;;;13.80;99.90;;;;;;5063219;28;20020;-73
2022/06/28 04:34:57;;;;;;;4.47;2.67;;;13.80;99.90;;;;;;5063105;28;20786;-73
2022/06/28 04:37:23;;;;;;;5.65;2.42;;;13.80;99.90;;;;;;5060861;28;20502;-73
2022/06/28 04:39:49;;;;;;;9.50;3.22;;;13.90;99.90;;;;;;5074793;28;20032;-73
2022/06/28 04:42:15;;;;;;;4.13;2.40;;;13.90;99.90;;;;;;5059382;28;20081;-73
2022/06/28 04:44:41;;;;;;;3.90;2.33;;;13.90;99.90;;;;;;5069536;28;20047;-73
2022/06/28 04:47:08;;;;;;;6.38;2.63;;;13.90;99.90;;;;;;5065618;28;20041;-73
2022/06/28 04:49:33;;;;;;;5.65;2.58;;;13.90;99.90;;;;;;5059139;28;20127;-73
2022/06/28 04:52:00;;;;;;;4.32;2.22;;;14.00;99.90;;;;;;5068784;28;20631;-73
2022/06/28 04:54:25;;;;;;;3.45;2.20;;;14.00;99.90;;;;;;5071701;28;20040;-73
2022/06/28 04:56:52;;;;;;;5.82;3.13;;;14.00;99.90;;;;;;5065856;28;20396;-73
2022/06/28 04:59:17;;;;;;;5.35;3.08;;;14.00;99.90;;;;;;5060524;28;20040;-73
2022/06/28 05:01:43;;;;;;;6.05;3.10;;;14.10;99.90;;;;;;5058053;28;20044;-73
2022/06/28 05:04:09;;;;;;;5.57;2.63;;;14.10;99.90;;;;;;5066981;28;20118;-73
2022/06/28 05:06:34;;;;;;;5.18;2.85;;;14.10;99.90;;;;;;5063557;28;20032;-73
2022/06/28 05:09:00;;;;;;;3.85;2.33;;;14.10;99.90;;;;;;5067850;28;20033;-73
2022/06/28 05:11:26;;;;;;;5.78;3.00;;;14.10;99.90;;;;;;5056783;28;20041;-73
2022/06/28 05:13:51;;;;;;;5.10;2.88;;;14.20;99.90;;;;;;5056860;28;20106;-73
2022/06/28 05:16:17;;;;;;;3.95;2.05;;;14.10;99.90;;;;;;5064240;28;20041;-73
2022/06/28 05:18:42;;;;;;;5.10;2.88;;;14.20;99.90;;;;;;5054103;28;20044;-73
2022/06/28 05:21:08;;;;;;;4.43;2.72;;;14.20;99.90;;;;;;5060205;28;20032;-73
2022/06/28 05:23:34;;;;;;;4.80;2.42;;;14.20;99.90;;;;;;5066991;28;20968;-73
2022/06/28 05:25:59;;;;;;;5.82;2.72;;;14.20;99.90;;;;;;5073194;28;20032;-73
2022/06/28 05:28:25;;;;;;;6.22;2.30;;;14.20;99.90;;;;;;5063688;28;20060;-73
2022/06/28 05:30:51;;;;;;;4.05;2.50;;;14.20;99.90;;;;;;5063930;28;20048;-73
2022/06/28 05:33:16;;;;;;;3.85;2.55;;;14.30;99.90;;;;;;5054276;28;20044;-73
2022/06/28 05:35:42;;;;;;;5.07;2.67;;;14.20;99.90;;;;;;5073323;28;20045;-73
2022/06/28 05:38:08;;;;;;;4.88;2.58;;;14.30;99.90;;;;;;5061725;28;20072;-73
2022/06/28 05:40:34;;;;;;;3.47;2.05;;;14.30;99.90;;;;;;5063293;28;20047;-73
2022/06/28 05:42:59;;;;;;;4.72;2.45;;;14.30;99.90;;;;;;5058631;28;20037;-73
2022/06/28 05:45:25;;;;;;;3.58;1.83;;;14.30;99.90;;;;;;5065307;28;20032;-73
2022/06/28 05:47:51;;;;;;;4.57;2.80;;;14.30;99.90;;;;;;5069030;28;21315;-73
2022/06/28 05:50:16;;;;;;;8.50;2.42;;;14.40;99.90;;;;;;5057356;28;20040;-73
2022/06/28 05:52:42;;;;;;;3.85;2.35;;;14.40;99.90;;;;;;5059605;28;20035;-73
2022/06/28 05:55:08;;;;;;;4.78;2.70;;;14.40;99.90;;;;;;5060285;28;20029;-73
2022/06/28 05:57:33;;;;;;;3.75;2.30;;;14.50;99.90;;;;;;5054869;28;20048;-73
2022/06/28 05:59:59;;;;;;;8.35;2.92;;;14.50;99.90;;;;;;5066210;28;20052;-73
2022/06/28 06:02:24;;;;;;;3.70;2.20;;;14.60;99.90;;;;;;5061428;28;20025;-73
2022/06/28 06:04:50;;;;;;;4.93;2.85;;;14.50;99.90;;;;;;5067788;28;20124;-73
2022/06/28 06:07:16;;;;;;;5.20;2.08;;;14.60;99.90;;;;;;5062409;28;20491;-73
2022/06/28 06:09:42;;;;;;;5.53;2.10;;;14.60;99.90;;;;;;5058179;28;20045;-73
2022/06/28 06:12:08;;;;;;;4.00;2.08;;;14.70;99.90;;;;;;5060102;28;20174;-73
2022/06/28 06:14:34;;;;;;;3.63;1.90;;;14.70;99.90;;;;;;5042736;28;20728;-73
2022/06/28 06:17:00;;;;;;;3.65;1.73;;;14.70;99.90;;;;;;5031671;28;20134;-73
2022/06/28 06:19:26;;;;;;;6.88;2.25;;;14.80;99.90;;;;;;5063513;28;20118;-73
2022/06/28 06:21:51;;;;;;;2.67;1.83;;;14.80;99.90;;;;;;5064161;28;20048;-74
2022/06/28 06:24:17;;;;;;;8.98;2.67;;;14.90;99.90;;;;;;5061534;28;20037;-73
2022/06/28 06:26:44;;;;;;;4.05;2.00;;;14.90;99.90;;;;;;5065685;28;20044;-74
2022/06/28 06:29:09;;;;;;;4.03;2.30;;;15.00;99.90;;;;;;5066253;28;20040;-73
2022/06/28 06:31:35;;;;;;;4.15;2.25;;;15.10;99.90;;;;;;5068942;28;20409;-74
2022/06/28 06:34:01;;;;;;;4.25;2.28;;;15.20;99.90;;;;;;5055506;28;20036;-73
2022/06/28 06:36:26;;;;;;;4.35;2.42;;;15.60;99.90;;;;;;5058638;28;20032;-74
2022/06/28 06:38:53;;;;;;;5.70;2.30;;;16.70;99.90;;;;;;5064345;28;20044;-74
2022/06/28 06:41:18;;;;;;;7.10;2.92;;;17.90;99.90;;;;;;5064908;28;20052;-73
2022/06/28 06:43:44;;;;;;;5.15;2.05;;;19.00;99.90;;;;;;5063156;28;20044;-73
2022/06/28 06:46:10;;;;;;;5.70;2.42;;;20.00;99.90;;;;;;5064343;28;20553;-74
2022/06/28 06:48:35;;;;;;;5.90;2.17;;;20.90;99.90;;;;;;5060611;28;20086;-74
2022/06/28 06:51:01;;;;;;;3.58;1.90;;;21.70;99.90;;;;;;5062961;28;20032;-73
2022/06/28 06:53:28;;;;;;;2.83;1.77;;;22.20;99.90;;;;;;5058575;28;20067;-74
2022/06/28 06:55:54;;;;;;;3.53;1.98;;;22.10;99.90;;;;;;5060087;28;20841;-74
2022/06/28 06:58:20;;;;;;;5.30;1.85;;;21.60;99.90;;;;;;5067786;28;20048;-73
2022/06/28 07:00:45;;;;;;;7.55;1.85;;;21.00;99.90;;;;;;5043321;28;20040;-74
2022/06/28 07:03:11;;;;;;;2.85;1.60;;;20.40;99.90;;;;;;5072137;28;20032;-74
2022/06/28 07:05:37;;;;;;;2.92;1.63;;;19.80;99.90;;;;;;5067698;28;20108;-73
2022/06/28 07:08:02;;;;;;;3.38;1.88;;;19.30;99.90;;;;;;5065638;28;20044;-74
2022/06/28 07:10:28;;;;;;;2.97;1.55;;;19.00;99.90;;;;;;5060836;28;20064;-74
2022/06/28 07:12:53;;;;;;;5.18;2.08;;;18.70;99.90;;;;;;5061843;28;20062;-74
2022/06/28 07:15:19;;;;;;;3.10;1.73;;;18.50;99.90;;;;;;5058755;28;20059;-74
2022/06/28 07:17:45;;;;;;;2.60;1.35;;;18.30;99.90;;;;;;5066079;28;21875;-74
2022/06/28 07:20:12;;;;;;;3.70;1.45;;;18.10;99.90;;;;;;5059775;28;20417;-73
2022/06/28 07:22:37;;;;;;;2.90;1.67;;;17.90;99.90;;;;;;5067624;28;20040;-73
2022/06/28 07:25:03;;;;;;;3.38;1.83;;;17.80;99.90;;;;;;5066729;28;20474;-73
2022/06/28 07:27:29;;;;;;;3.42;1.80;;;17.70;99.90;;;;;;5060021;28;20034;-73
2022/06/28 07:29:54;;;;;;;3.83;1.83;;;17.70;99.90;;;;;;5058240;28;20037;-74
2022/06/28 07:32:20;;;;;;;2.97;1.40;;;17.70;99.90;;;;;;5071392;28;20042;-74
2022/06/28 07:34:46;;;;;;;4.47;2.10;;;17.70;99.90;;;;;;5050222;28;20166;-74
2022/06/28 07:37:12;;;;;;;2.78;1.40;;;17.70;99.90;;;;;;5061791;28;20515;-74
2022/06/28 07:39:38;;;;;;;3.83;1.48;;;17.70;99.90;;;;;;5060881;28;20275;-74
2022/06/28 07:42:04;;;;;;;5.43;2.20;;;17.60;99.90;;;;;;5058445;28;20037;-74
2022/06/28 07:44:29;;;;;;;6.25;1.50;;;17.60;99.90;;;;;;5066551;28;20055;-74
2022/06/28 07:46:55;;;;;;;2.90;1.52;;;17.70;99.90;;;;;;5062389;28;20490;-74
2022/06/28 07:49:21;;;;;;;2.63;1.67;;;17.70;99.90;;;;;;5059554;28;20063;-74
2022/06/28 07:54:31;;;;;;;2.67;1.40;;;17.70;99.90;;;;;;5061831;28;20070;-74
2022/06/28 07:56:56;;;;;;;3.00;1.27;;;17.60;99.90;;;;;;5056702;28;20040;-74
2022/06/28 07:59:22;;;;;;;3.05;1.50;;;17.60;99.90;;;;;;5055047;28;20032;-74
2022/06/28 08:01:47;;;;;;;4.30;1.45;;;17.70;99.90;;;;;;5066040;28;20051;-74
2022/06/28 08:04:14;;;;;;;2.40;1.10;;;17.70;99.90;;;;;;5061466;28;20492;-74
2022/06/28 08:06:41;;;;;;;3.80;1.73;;;17.80;99.90;;;;;;5059408;28;20496;-74
2022/06/28 08:09:06;;;;;;;2.65;1.58;;;17.80;99.90;;;;;;5070711;28;20054;-74
2022/06/28 08:11:32;;;;;;;5.78;1.67;;;17.80;99.90;;;;;;5050393;28;20406;-74
2022/06/28 08:13:59;;;;;;;3.28;1.48;;;17.90;99.90;;;;;;5064777;28;21650;-74
2022/06/28 08:16:25;;;;;;;1.50;1.02;;;18.00;99.90;;;;;;5062098;28;20498;-74
2022/06/28 08:18:50;;;;;;;2.33;1.27;;;18.20;99.90;;;;;;5071389;28;20040;-74
2022/06/28 08:21:16;;;;;;;2.05;1.10;;;18.10;99.90;;;;;;5057810;28;20032;-70
2022/06/28 08:23:42;;;;;;;3.53;1.70;;;18.20;99.90;;;;;;5055975;28;20547;-74
2022/06/28 08:26:07;;;;;;;2.97;1.50;;;18.10;99.90;;;;;;5055257;28;20040;-74
2022/06/28 08:28:33;;;;;;;2.83;1.35;;;18.20;99.90;;;;;;5068686;28;20078;-74
2022/06/28 08:30:59;;;;;;;3.35;1.08;;;18.20;99.90;;;;;;5060359;28;20044;-74
2022/06/28 08:33:24;;;;;;;2.70;1.20;;;18.20;99.90;;;;;;5062038;28;20040;-74
2022/06/28 08:35:50;;;;;;;2.83;0.95;;;18.20;99.90;;;;;;5061560;28;22249;-74
2022/06/28 08:38:15;;;;;;;1.35;0.75;;;18.20;99.90;;;;;;5059749;28;20041;-74
2022/06/28 08:40:43;;;;;;;5.35;1.70;;;18.20;99.90;;;;;;5057390;28;20036;-74
2022/06/28 08:43:08;;;;;;;3.45;1.45;;;18.20;99.90;;;;;;5056914;28;20055;-74
2022/06/28 08:45:35;;;;;;;6.53;2.03;;;18.20;99.90;;;;;;5052977;28;20090;-74
2022/06/28 08:48:12;;;;;;;2.35;1.17;;;18.20;99.90;;;;;;5059606;28;20099;-74
2022/06/28 08:50:41;;;;;;;26.92;5.40;;;18.20;99.90;;;;;;5054685;28;20612;-74
2022/06/28 08:53:09;;;;;;;2.88;1.10;;;18.30;99.90;;;;;;5059208;28;20167;-75
2022/06/28 08:55:36;;;;;;;3.47;1.55;;;18.30;99.90;;;;;;5055105;28;20043;-74
2022/06/28 08:58:05;;;;;;;6.28;1.30;;;18.30;99.90;;;;;;5059453;28;20074;-74
2022/06/28 09:00:31;;;;;;;3.60;0.80;;;18.20;99.90;;;;;;5063001;28;20063;-74
2022/06/28 09:02:57;;;;;;;2.50;1.15;;;18.20;99.90;;;;;;5056599;28;20074;-74
2022/06/28 09:05:24;;;;;;;1.25;0.70;;;18.20;99.90;;;;;;5052013;28;20051;-74
2022/06/28 09:07:50;;;;;;;1.20;0.70;;;18.30;99.90;;;;;;5067877;28;20151;-74
2022/06/28 09:10:19;;;;;;;1.50;0.70;;;18.30;99.90;;;;;;5059562;28;20037;-74
2022/06/28 09:12:57;;;;;;;1.88;0.88;;;18.40;99.90;;;;;;5054869;28;20039;-75
2022/06/28 09:15:24;;;;;;;2.85;0.82;;;18.40;99.90;;;;;;5062908;28;20617;-75
2022/06/28 09:17:53;;;;;;;1.52;0.65;;;18.40;99.90;;;;;;5052783;28;20049;-75
2022/06/28 09:20:20;;;;;;;2.80;0.60;;;18.50;99.90;;;;;;5059269;28;20422;-74
2022/06/28 09:22:46;;;;;;;2.53;0.70;;;18.50;99.90;;;;;;5036159;28;20607;-75
2022/06/28 09:25:27;;;;;;;1.80;0.40;;;18.60;99.90;;;;;;5060082;28;20028;-68
2022/06/28 09:27:58;;;;;;;3.30;0.55;;;18.60;99.90;;;;;;5066237;28;20044;-77
2022/06/28 09:30:26;;;;;;;3.15;0.50;;;18.70;99.90;;;;;;5046088;28;22387;-74
2022/06/28 09:32:52;;;;;;;1.85;0.65;;;18.70;99.90;;;;;;5059426;28;20067;-74
2022/06/28 09:35:18;;;;;;;1.25;0.50;;;18.70;99.90;;;;;;5057223;28;20036;-74
2022/06/28 09:37:53;;;;;;;0.63;0.40;;;18.70;99.90;;;;;;5064609;28;20276;-74
2022/06/28 09:40:22;;;;;;;1.50;0.68;;;18.60;99.90;;;;;;5060230;28;20036;-74
2022/06/28 09:43:08;;;;;;;4.00;0.57;;;18.40;99.90;;;;;;5055555;28;20205;-74
2022/06/28 09:45:35;;;;;;;0.65;0.40;;;18.50;99.90;;;;;;5052860;28;20040;-72
2022/06/28 09:48:02;;;;;;;1.85;0.50;;;18.50;99.90;;;;;;5055210;28;20628;-74
2022/06/28 09:50:30;;;;;;;1.17;0.47;;;18.60;99.90;;;;;;5073993;28;20073;-75
2022/06/28 09:52:57;;;;;;;0.82;0.60;;;18.70;99.90;;;;;;5053527;28;20486;-75
2022/06/28 09:55:26;;;;;;;0.77;0.30;;;18.70;99.90;;;;;;5071567;28;20029;-75
2022/06/28 09:57:52;;;;;;;0.68;0.43;;;18.80;99.90;;;;;;5074569;28;20411;-74
2022/06/28 10:00:21;;;;;;;1.17;0.60;;;18.80;99.90;;;;;;5076028;28;20540;-74
2022/06/28 10:02:47;;;;;;;0.93;0.45;;;18.80;99.90;;;;;;5051732;28;20119;-74
2022/06/28 10:05:13;;;;;;;1.73;0.45;;;18.90;99.90;;;;;;5044027;28;20047;-74
2022/06/28 10:07:40;;;;;;;2.05;0.40;;;18.90;99.90;;;;;;5056149;28;20575;-74
2022/06/28 10:10:09;;;;;;;1.33;0.60;;;18.90;99.90;;;;;;5057185;28;20126;-75
2022/06/28 10:15:23;;;;;;;1.33;0.40;;;18.90;99.90;;;;;;5060725;28;20041;-74
2022/06/28 10:18:01;;;;;;;0.68;0.28;;;19.00;99.90;;;;;;5054391;28;20132;-74
2022/06/28 10:20:29;;;;;;;1.33;0.43;;;19.00;99.90;;;;;;5053089;28;20135;-74
2022/06/28 10:23:22;;;;;;;1.40;0.63;;;19.10;99.90;;;;;;5040690;28;20047;-74
2022/06/28 10:26:02;;;;;;;0.60;0.40;;;19.10;99.90;;;;;;5050963;28;20094;-74
2022/06/28 10:28:34;;;;;;;1.85;0.55;;;19.20;99.90;;;;;;5052509;28;20048;-74
2022/06/28 10:31:25;;;;;;;1.50;0.52;;;19.30;99.90;;;;;;5052649;28;20037;-75
2022/06/28 10:33:53;;;;;;;1.33;0.40;;;19.30;99.90;;;;;;5050867;28;20068;-74
2022/06/28 10:36:21;;;;;;;1.90;0.47;;;19.40;99.90;;;;;;5056422;28;20054;-75
2022/06/28 10:39:07;;;;;;;1.00;0.30;;;19.50;99.90;;;;;;5066096;28;20033;-74
2022/06/28 10:41:40;;;;;;;2.00;0.80;;;19.60;99.90;;;;;;5055017;28;20052;-74
2022/06/28 10:44:08;;;;;;;0.80;0.40;;;19.70;99.90;;;;;;5061359;28;20055;-75
2022/06/28 10:46:34;;;;;;;2.15;0.40;;;19.70;99.90;;;;;;5060720;28;20040;-74
2022/06/28 10:49:03;;;;;;;1.10;0.68;;;19.70;99.90;;;;;;5060831;28;20047;-75
2022/06/28 10:51:29;;;;;;;1.35;0.30;;;19.80;99.90;;;;;;5057878;28;20079;-74
2022/06/28 10:53:57;;;;;;;1.48;0.55;;;19.90;99.90;;;;;;5051735;28;20119;-74
2022/06/28 10:56:24;;;;;;;1.17;0.45;;;19.90;99.90;;;;;;5049916;28;20048;-74
2022/06/28 10:59:07;;;;;;;1.02;0.40;;;19.90;99.90;;;;;;5056795;28;20421;-75
2022/06/28 11:01:44;;;;;;;3.95;0.60;;;20.00;99.90;;;;;;5061632;28;20481;-75
2022/06/28 11:04:22;;;;;;;0.43;0.20;;;19.90;99.90;;;;;;5058807;28;20036;-75
2022/06/28 11:07:02;;;;;;;1.17;0.30;;;19.90;99.90;;;;;;5053172;28;20393;-75
2022/06/28 11:09:59;;;;;;;0.70;0.30;;;19.80;99.90;;;;;;5059201;28;20044;-74
2022/06/28 11:12:27;;;;;;;0.50;0.20;;;19.80;99.90;;;;;;5054513;28;20487;-74
2022/06/28 11:14:58;;;;;;;0.43;0.28;;;19.80;99.90;;;;;;5056351;28;20049;-75
2022/06/28 11:17:29;;;;;;;0.68;0.20;;;19.80;99.90;;;;;;5055665;28;20049;-75
2022/06/28 11:19:57;;;;;;;0.70;0.28;;;19.80;99.90;;;;;;5059151;28;20539;-74
2022/06/28 11:22:47;;;;;;;0.73;0.30;;;19.80;99.90;;;;;;5060316;28;20036;-75
2022/06/28 11:25:19;;;;;;;0.52;0.30;;;19.80;98.60;;;;;;5060187;28;20047;-75
2022/06/28 11:27:55;;;;;;;0.75;0.40;;;19.90;99.90;;;;;;5060472;28;20048;-75
2022/06/28 11:30:23;;;;;;;0.40;0.30;;;20.00;99.90;;;;;;5056552;28;20082;-75
2022/06/28 11:32:50;;;;;;;0.80;0.40;;;20.10;99.90;;;;;;5070903;28;20044;-75
2022/06/28 11:35:25;;;;;;;0.50;0.28;;;20.20;99.90;;;;;;5056613;28;20276;-75
2022/06/28 11:38:02;;;;;;;1.00;0.40;;;20.10;99.90;;;;;;5062762;28;20047;-74
2022/06/28 11:40:40;;;;;;;0.75;0.20;;;20.00;99.90;;;;;;5050664;28;20826;-75
2022/06/28 11:43:13;;;;;;;0.30;0.20;;;20.00;98.70;;;;;;5061455;28;20618;-75
2022/06/28 11:45:43;;;;;;;0.75;0.20;;;20.00;99.90;;;;;;5058617;28;20037;-75
2022/06/28 11:48:15;;;;;;;0.52;0.10;;;20.00;99.90;;;;;;5069414;28;20046;-74
2022/06/28 11:50:45;;;;;;;4.53;0.38;;;20.00;99.90;;;;;;5064652;28;20033;-74
2022/06/28 11:53:13;;;;;;;0.55;0.30;;;20.00;99.90;;;;;;5055867;28;20112;-74
2022/06/28 11:55:42;;;;;;;0.30;0.22;;;20.00;99.90;;;;;;5057456;28;20068;-74
2022/06/28 11:58:12;;;;;;;1.48;0.30;;;20.20;99.90;;;;;;5062841;28;20036;-75
2022/06/28 12:00:38;;;;;;;0.25;0.20;;;20.30;99.90;;;;;;5060279;28;20037;-74
2022/06/28 12:03:07;;;;;;;0.63;0.30;;;20.40;99.90;;;;;;5049181;28;20610;-75
2022/06/28 12:05:36;;;;;;;1.17;0.40;;;20.40;99.70;;;;;;5077288;28;20029;-74
2022/06/28 12:08:03;;;;;;;1.10;0.40;;;20.40;99.10;;;;;;5052295;28;20075;-75
2022/06/28 12:10:33;;;;;;;1.75;0.35;;;20.40;99.70;;;;;;5050070;28;20044;-75
2022/06/28 12:13:08;;;;;;;0.75;0.30;;;20.50;98.80;;;;;;5055075;28;20481;-75
2022/06/28 12:15:34;;;;;;;;;;;20.50;99.70;;;;;;5055943;28;20036;-74
2022/06/28 12:18:02;;;;;;;2.80;0.77;;;20.50;95.60;;;;;;5055470;28;19932;-74
2022/06/28 12:20:30;;;;;;;0.95;0.32;;;20.50;99.40;;;;;;5059885;28;20056;-74
2022/06/28 12:22:58;;;;;;;0.52;0.40;;;20.30;99.80;;;;;;5056100;28;20115;-74
2022/06/28 12:25:23;;;;;;;1.08;0.30;;;20.20;99.90;;;;;;5047821;28;20044;-75
2022/06/28 12:27:49;;;;;;;0.85;0.40;;;20.20;99.90;;;;;;5056050;28;20098;-75
2022/06/28 12:30:15;;;;;;;0.70;0.15;;;20.20;99.90;;;;;;5054396;28;20060;-75
2022/06/28 12:32:40;;;;;;;2.10;0.47;;;20.20;99.90;;;;;;5053327;28;20055;-75
2022/06/28 12:35:08;;;;;;;0.73;0.22;;;20.20;99.80;;;;;;5057784;28;20045;-75
2022/06/28 12:37:34;;;;;;;0.88;0.40;;;20.10;99.90;;;;;;5054270;28;20033;-75
2022/06/28 12:40:00;;;;;;;0.85;0.30;;;20.20;99.80;;;;;;5057308;28;21402;-74
2022/06/28 12:42:27;;;;;;;1.45;0.50;;;20.20;99.90;;;;;;5060917;28;20043;-75
2022/06/28 12:45:00;;;;;;;0.70;0.43;;;20.30;99.90;;;;;;5055828;28;20040;-75
2022/06/28 12:47:33;;;;;;;0.73;0.40;;;20.40;99.80;;;;;;5054203;28;20041;-75
2022/06/28 12:50:02;;;;;;;1.52;0.40;;;20.50;99.90;;;;;;5061432;28;20067;-75
2022/06/28 12:52:30;;;;;;;1.05;0.35;;;20.50;99.90;;;;;;5054464;28;20070;-75
2022/06/28 12:54:58;;;;;;;0.45;0.30;;;20.60;99.60;;;;;;5055771;28;20522;-75
2022/06/28 12:57:24;;;;;;;2.83;0.52;;;20.60;99.60;;;;;;5058528;28;20082;-75
2022/06/28 12:59:50;;;;;;;3.65;0.45;;;20.60;99.30;;;;;;5051250;28;20052;-75
2022/06/28 13:02:16;;;;;;;1.83;0.40;;;20.60;99.00;;;;;;5070848;28;20044;-75